Portada
METAR-TAF:

METAR-TAF

Aeroports :

Malé, Maldives

latitud: 04-12N, longitud: 073-32E, altitud: 2 m

Observació

L'informe es va fer fa 1 hora i 11 minuts, a les 05:00 UTC
Vent 14 kt del Nord-Est
Temperatura 31°C
Humitat 66%
Pressió 1010 hPa
Visibilitat 10 km o més
Núvols disperses a una alçada de 1800 ft, Cumulus congestus.

METAR: VRMM 280500Z 05014KT 9999 SCT018TCU 31/24 Q1010 NOSIG

Hora: 11:11 (06:11 UTC)

Pronòstic

L'informe es va fer fa 1 hora i 11 minuts, a les 05:00 UTC
Pronòstic vàlid del 28 a les 06 UTC al 29 a les 12 UTC
Vent 16 kt del Nord-Est
Visibilitat 10 km o més
Escasses núvols a una alçada de 1900 ft
Temporalment
l' 28 a les 09 UTC al 28 a les 15 UTC
Escasses núvols a una alçada de 1900 ft, Cumulonimbus.

TAF: VRMM 280500Z 2806/2912 05016KT 9999 FEW019 TEMPO 2809/2815 FEW019CB

Observacions i pronòstics meteorològics de més de 4000 aeroports (METAR i TAF).

Les estacions disponibles són els punts grocs i vermells al mapa.

Posi el ratolí al punt desitjat per veure el nom de l'estació.

Feu clic per veure les observacions i els pronòstics meteorològics.

Per canviar el mapa: feu clic els botons verds amb una creu de color negre per apropar; al botó verd amb un guió per allunyar la imatge; o en les fletxes verdes per a mapes adjacents.


METAR-TAF: